Time;durP1;ratioP1;P1;durP2;ratioP2;P2;SDS_P1;SDS_P2;PMS_P1;PMS_P2;Temp;Humidity;BMP_temperature;BMP_pressure;BME280_temperature;BME280_humidity;BME280_pressure;Samples;Min_cycle;Max_cycle;Signal;HPM_P1;HPM_P2
2021/05/01 00:02:22;;;;;;;;;;;19.20;58.30;;;;;;5089370;28;1774;-68
2021/05/01 00:04:48;;;;;;;;;;;19.20;58.30;;;;;;5089976;28;1497;-68
2021/05/01 00:07:13;;;;;;;;;;;19.20;58.30;;;;;;5108699;28;1494;-68
2021/05/01 00:09:39;;;;;;;;;;;19.20;58.30;;;;;;5093167;28;1340;-68
2021/05/01 00:12:04;;;;;;;;;;;19.20;58.40;;;;;;5093109;28;1135;-68
2021/05/01 00:14:30;;;;;;;;;;;19.10;58.30;;;;;;5093336;28;1524;-68
2021/05/01 00:16:55;;;;;;;;;;;19.20;58.40;;;;;;5094876;28;1356;-68
2021/05/01 00:19:21;;;;;;;;;;;19.20;58.40;;;;;;5112673;28;1910;-68
2021/05/01 00:21:46;;;;;;;;;;;19.10;58.30;;;;;;5074854;28;1153;-68
2021/05/01 00:24:12;;;;;;;;;;;19.10;58.30;;;;;;5084326;28;1151;-68
2021/05/01 00:26:37;;;;;;;;;;;19.10;58.30;;;;;;5085179;28;1680;-68
2021/05/01 00:29:03;;;;;;;;;;;19.10;58.40;;;;;;5113218;28;1352;-68
2021/05/01 00:31:29;;;;;;;;;;;19.10;58.40;;;;;;5094080;28;1386;-68
2021/05/01 00:33:54;;;;;;;;;;;19.10;58.40;;;;;;5086034;28;1181;-68
2021/05/01 00:36:20;;;;;;;;;;;19.10;58.40;;;;;;5115426;22;2597;-64
2021/05/01 00:38:45;;;;;;;;;;;19.10;58.40;;;;;;5093028;28;1532;-65
2021/05/01 00:41:11;;;;;;;;;;;19.10;58.40;;;;;;5074385;28;1906;-64
2021/05/01 00:43:40;;;;;;;;;;;19.10;58.40;;;;;;5092830;28;1328;-64
2021/05/01 00:46:05;;;;;;;;;;;19.10;58.40;;;;;;5074048;28;1300;-64
2021/05/01 00:48:31;;;;;;;;;;;19.10;58.50;;;;;;5074632;28;1702;-64
2021/05/01 00:50:57;;;;;;;;;;;19.10;58.50;;;;;;5074432;28;1312;-65
2021/05/01 00:53:22;;;;;;;;;;;19.10;58.50;;;;;;5086419;28;1455;-65
2021/05/01 00:55:48;;;;;;;;;;;19.10;58.50;;;;;;5065113;28;1289;-64
2021/05/01 00:58:13;;;;;;;;;;;19.10;58.50;;;;;;5049657;28;1610;-64
2021/05/01 01:03:07;;;;;;;;;;;19.10;58.50;;;;;;5083210;28;1238;-66
2021/05/01 01:05:32;;;;;;;;;;;19.00;58.40;;;;;;5064071;28;1318;-66
2021/05/01 01:07:58;;;;;;;;;;;19.10;58.50;;;;;;5084014;28;1354;-65
2021/05/01 01:10:23;;;;;;;;;;;19.10;58.50;;;;;;5063644;28;1192;-65
2021/05/01 01:12:48;;;;;;;;;;;19.10;58.50;;;;;;5082880;28;1301;-66
2021/05/01 01:15:24;;;;;;;;;;;19.10;58.50;;;;;;5079555;28;1264;-65
2021/05/01 01:17:49;;;;;;;;;;;19.10;58.60;;;;;;5063230;28;1224;-65
2021/05/01 01:20:15;;;;;;;;;;;19.10;58.60;;;;;;5068173;28;1902;-64
2021/05/01 01:22:41;;;;;;;;;;;19.00;58.50;;;;;;5082446;28;1419;-64
2021/05/01 01:25:06;;;;;;;;;;;19.10;58.60;;;;;;5080041;28;1381;-65
2021/05/01 01:27:32;;;;;;;;;;;19.10;58.60;;;;;;5082089;28;1218;-65
2021/05/01 01:29:57;;;;;;;;;;;19.10;58.60;;;;;;5049628;28;1215;-66
2021/05/01 01:32:23;;;;;;;;;;;19.00;58.50;;;;;;5080556;28;1214;-65
2021/05/01 01:34:48;;;;;;;;;;;19.00;58.60;;;;;;5087997;28;1276;-65
2021/05/01 01:37:13;;;;;;;;;;;19.00;58.60;;;;;;5072633;28;1118;-66
2021/05/01 01:39:39;;;;;;;;;;;19.00;58.60;;;;;;5072547;28;1905;-64
2021/05/01 01:42:05;;;;;;;;;;;19.00;58.60;;;;;;5054221;28;1220;-65
2021/05/01 01:44:30;;;;;;;;;;;19.00;58.60;;;;;;5072889;28;1135;-66
2021/05/01 01:46:55;;;;;;;;;;;19.00;58.60;;;;;;5072376;28;1212;-64
2021/05/01 01:49:21;;;;;;;;;;;19.00;58.60;;;;;;5073073;28;1162;-65
2021/05/01 01:51:46;;;;;;;;;;;19.00;58.60;;;;;;5072745;28;1071;-65
2021/05/01 01:54:12;;;;;;;;;;;19.00;58.60;;;;;;5072512;28;1095;-64
2021/05/01 01:56:37;;;;;;;;;;;19.00;58.60;;;;;;5072339;28;1188;-65
2021/05/01 01:59:03;;;;;;;;;;;19.00;58.60;;;;;;5072540;28;2012;-65
2021/05/01 02:01:29;;;;;;;;;;;19.00;58.70;;;;;;5072660;28;1079;-66
2021/05/01 02:03:54;;;;;;;;;;;19.00;58.70;;;;;;5072744;28;1048;-64
2021/05/01 02:06:20;;;;;;;;;;;19.00;58.70;;;;;;5072621;28;1318;-64
2021/05/01 02:08:45;;;;;;;;;;;19.00;58.70;;;;;;5072392;28;1063;-65
2021/05/01 02:11:10;;;;;;;;;;;19.00;58.70;;;;;;5054804;28;1072;-64
2021/05/01 02:13:36;;;;;;;;;;;19.00;59.30;;;;;;5072488;28;1118;-64
2021/05/01 02:16:01;;;;;;;;;;;19.00;58.80;;;;;;5072064;28;1208;-64
2021/05/01 02:18:27;;;;;;;;;;;19.00;58.80;;;;;;5072596;28;1174;-65
2021/05/01 02:20:52;;;;;;;;;;;19.00;58.70;;;;;;5072382;28;1898;-65
2021/05/01 02:23:18;;;;;;;;;;;19.00;58.70;;;;;;5072774;28;1087;-65
2021/05/01 02:25:43;;;;;;;;;;;19.00;58.70;;;;;;5072060;28;1454;-65
2021/05/01 02:28:08;;;;;;;;;;;19.00;58.80;;;;;;5072323;28;1079;-65
2021/05/01 02:30:34;;;;;;;;;;;19.00;58.80;;;;;;5054633;28;1166;-66
2021/05/01 02:32:59;;;;;;;;;;;19.00;58.70;;;;;;5072342;28;1059;-65
2021/05/01 02:35:29;;;;;;;;;;;19.00;58.80;;;;;;5071909;28;1264;-64
2021/05/01 02:37:55;;;;;;;;;;;19.00;58.80;;;;;;5072178;28;1075;-64
2021/05/01 02:40:20;;;;;;;;;;;18.90;58.70;;;;;;5054509;28;1914;-64
2021/05/01 02:42:46;;;;;;;;;;;19.00;58.80;;;;;;5072408;28;1185;-64
2021/05/01 02:45:12;;;;;;;;;;;18.90;58.80;;;;;;5053968;28;1358;-64
2021/05/01 02:47:38;;;;;;;;;;;18.90;58.80;;;;;;5072359;28;1130;-64
2021/05/01 02:50:04;;;;;;;;;;;18.90;58.70;;;;;;5072224;28;1145;-64
2021/05/01 02:52:29;;;;;;;;;;;18.90;58.80;;;;;;5054121;28;1103;-65
2021/05/01 02:54:54;;;;;;;;;;;18.90;58.80;;;;;;5057320;28;1233;-66
2021/05/01 02:57:20;;;;;;;;;;;18.90;58.80;;;;;;5075693;28;1170;-64
2021/05/01 02:59:45;;;;;;;;;;;18.90;58.80;;;;;;5076103;28;1961;-65
2021/05/01 03:02:11;;;;;;;;;;;18.90;58.80;;;;;;5075819;28;1122;-66
2021/05/01 03:04:36;;;;;;;;;;;18.90;58.80;;;;;;5075947;28;1059;-64
2021/05/01 03:07:01;;;;;;;;;;;18.90;58.80;;;;;;5075010;28;1212;-65
2021/05/01 03:09:27;;;;;;;;;;;18.90;58.80;;;;;;5075786;28;1071;-66
2021/05/01 03:11:55;;;;;;;;;;;18.90;58.80;;;;;;5075538;28;1099;-65
2021/05/01 03:14:21;;;;;;;;;;;18.90;58.80;;;;;;5075623;28;1067;-65
2021/05/01 03:16:46;;;;;;;;;;;18.90;58.80;;;;;;5075037;28;1218;-65
2021/05/01 03:19:12;;;;;;;;;;;18.90;59.50;;;;;;5075373;28;1969;-66
2021/05/01 03:21:37;;;;;;;;;;;18.90;58.90;;;;;;5075148;28;1211;-66
2021/05/01 03:24:03;;;;;;;;;;;18.90;58.80;;;;;;5057469;28;1111;-66
2021/05/01 03:26:28;;;;;;;;;;;18.90;58.80;;;;;;5057066;28;1279;-65
2021/05/01 03:28:54;;;;;;;;;;;18.90;58.80;;;;;;5057434;28;1063;-65
2021/05/01 03:31:19;;;;;;;;;;;18.90;58.90;;;;;;5075183;28;1107;-64
2021/05/01 03:33:45;;;;;;;;;;;18.90;58.90;;;;;;5075391;28;1086;-64
2021/05/01 03:36:10;;;;;;;;;;;18.90;58.90;;;;;;5074468;28;1303;-66
2021/05/01 03:38:36;;;;;;;;;;;18.90;58.90;;;;;;5075100;28;1131;-65
2021/05/01 03:41:01;;;;;;;;;;;18.90;58.90;;;;;;5074906;28;1957;-65
2021/05/01 03:43:26;;;;;;;;;;;18.90;58.80;;;;;;5075362;28;1071;-66
2021/05/01 03:45:52;;;;;;;;;;;18.90;58.80;;;;;;5074665;28;1237;-65
2021/05/01 03:48:17;;;;;;;;;;;18.90;58.80;;;;;;5056885;28;1127;-65
2021/05/01 03:50:43;;;;;;;;;;;18.90;58.80;;;;;;5074754;28;1151;-66
2021/05/01 03:53:08;;;;;;;;;;;18.90;58.70;;;;;;5056781;28;1361;-65
2021/05/01 03:55:34;;;;;;;;;;;19.00;58.70;;;;;;5036702;28;1374;-65
2021/05/01 03:57:59;;;;;;;;;;;18.90;58.60;;;;;;5040105;28;1250;-66
2021/05/01 04:00:25;;;;;;;;;;;19.00;58.70;;;;;;5074654;28;1959;-66
2021/05/01 04:02:50;;;;;;;;;;;19.00;58.60;;;;;;5074712;28;1193;-64
2021/05/01 04:05:16;;;;;;;;;;;19.00;58.60;;;;;;5073995;28;1709;-64
2021/05/01 04:07:41;;;;;;;;;;;19.00;59.10;;;;;;5056543;28;1189;-66
2021/05/01 04:10:07;;;;;;;;;;;19.00;58.50;;;;;;5074604;28;1095;-65
2021/05/01 04:12:35;;;;;;;;;;;19.00;58.50;;;;;;5056524;28;1194;-65
2021/05/01 04:15:01;;;;;;;;;;;19.00;58.50;;;;;;5074123;28;1263;-65
2021/05/01 04:17:26;;;;;;;;;;;19.10;58.50;;;;;;5074245;28;1084;-65
2021/05/01 04:19:51;;;;;;;;;;;19.10;58.50;;;;;;5069437;28;1964;-67
2021/05/01 04:22:17;;;;;;;;;;;19.10;58.50;;;;;;5076284;28;1066;-65
2021/05/01 04:24:43;;;;;;;;;;;19.00;58.40;;;;;;5076591;28;1055;-66
2021/05/01 04:27:09;;;;;;;;;;;19.10;58.50;;;;;;5094136;28;1203;-65
2021/05/01 04:29:34;;;;;;;;;;;19.10;58.50;;;;;;5094427;28;1030;-65
2021/05/01 04:32:00;;;;;;;;;;;19.10;58.40;;;;;;5094266;28;1198;-64
2021/05/01 04:34:25;;;;;;;;;;;19.10;58.40;;;;;;5076215;28;1158;-65
2021/05/01 04:36:50;;;;;;;;;;;19.10;58.40;;;;;;5093560;28;1350;-64
2021/05/01 04:39:16;;;;;;;;;;;19.10;58.40;;;;;;5094135;28;1905;-64
2021/05/01 04:41:42;;;;;;;;;;;19.10;58.40;;;;;;5094037;28;1169;-65
2021/05/01 04:44:07;;;;;;;;;;;19.10;58.40;;;;;;5076317;28;1050;-65
2021/05/01 04:46:32;;;;;;;;;;;19.10;58.40;;;;;;5075529;28;1285;-65
2021/05/01 04:48:58;;;;;;;;;;;19.10;58.40;;;;;;5076015;28;1150;-65
2021/05/01 04:51:23;;;;;;;;;;;19.10;58.40;;;;;;5094000;28;1113;-64
2021/05/01 04:53:49;;;;;;;;;;;19.10;58.40;;;;;;5076024;28;1209;-65
2021/05/01 04:56:14;;;;;;;;;;;19.10;58.30;;;;;;5075487;28;1255;-64
2021/05/01 04:58:40;;;;;;;;;;;19.10;58.30;;;;;;5094234;28;1050;-64
2021/05/01 05:01:05;;;;;;;;;;;19.10;58.30;;;;;;5093599;28;1963;-64
2021/05/01 05:03:31;;;;;;;;;;;19.10;58.30;;;;;;5093897;28;1063;-65
2021/05/01 05:05:56;;;;;;;;;;;19.10;58.40;;;;;;5093250;28;1339;-65
2021/05/01 05:08:22;;;;;;;;;;;19.10;58.40;;;;;;5093698;28;1062;-64
2021/05/01 05:10:47;;;;;;;;;;;19.10;58.30;;;;;;5093584;28;1121;-65
2021/05/01 05:13:12;;;;;;;;;;;19.10;58.30;;;;;;5075513;28;1118;-64
2021/05/01 05:15:38;;;;;;;;;;;19.10;58.30;;;;;;5055994;28;1279;-66
2021/05/01 05:18:04;;;;;;;;;;;19.10;58.30;;;;;;5072477;28;1162;-65
2021/05/01 05:20:32;;;;;;;;;;;19.10;58.30;;;;;;5073290;28;1918;-67
2021/05/01 05:22:58;;;;;;;;;;;19.10;58.30;;;;;;5093423;28;1091;-66
2021/05/01 05:25:23;;;;;;;;;;;19.10;58.30;;;;;;5074792;28;1197;-67
2021/05/01 05:27:49;;;;;;;;;;;19.10;58.30;;;;;;5093368;28;1122;-67
2021/05/01 05:30:14;;;;;;;;;;;19.10;58.30;;;;;;5093042;28;1063;-67
2021/05/01 05:32:40;;;;;;;;;;;19.10;58.30;;;;;;5093872;28;1042;-65
2021/05/01 05:35:06;;;;;;;;;;;19.20;58.30;;;;;;5050252;28;1788;-63
2021/05/01 05:37:31;;;;;;;;;;;19.10;58.30;;;;;;5069963;28;882;-64
2021/05/01 05:39:57;;;;;;;;;;;19.20;58.30;;;;;;5072585;28;1961;-64
2021/05/01 05:42:23;;;;;;;;;;;19.20;58.30;;;;;;5072732;28;1099;-63
2021/05/01 05:44:50;;;;;;;;;;;19.20;58.30;;;;;;5059543;28;1286;-64
2021/05/01 05:47:19;;;;;;;;;;;19.10;58.20;;;;;;5074692;28;1232;-64
2021/05/01 05:49:44;;;;;;;;;;;19.20;58.30;;;;;;5092603;28;1094;-64
2021/05/01 05:52:10;;;;;;;;;;;19.20;58.30;;;;;;5058012;28;1115;-64
2021/05/01 05:54:35;;;;;;;;;;;19.20;58.30;;;;;;5092792;28;1146;-63
2021/05/01 05:57:01;;;;;;;;;;;19.20;58.30;;;;;;5079371;28;2505;-63
2021/05/01 05:59:26;;;;;;;;;;;19.20;58.30;;;;;;5074675;28;1901;-63
2021/05/01 06:01:52;;;;;;;;;;;19.20;58.30;;;;;;5092845;28;1066;-65
2021/05/01 06:04:20;;;;;;;;;;;19.20;58.30;;;;;;5052146;28;1114;-64
2021/05/01 06:06:54;;;;;;;;;;;19.20;58.30;;;;;;5071007;28;1216;-64
2021/05/01 06:09:19;;;;;;;;;;;19.20;58.30;;;;;;5060876;28;997;-64
2021/05/01 06:11:45;;;;;;;;;;;19.20;58.30;;;;;;5071283;28;1076;-64
2021/05/01 06:14:10;;;;;;;;;;;19.20;58.30;;;;;;5072550;28;1135;-65
2021/05/01 06:16:36;;;;;;;;;;;19.20;58.30;;;;;;5054491;28;1299;-64
2021/05/01 06:19:02;;;;;;;;;;;19.20;58.30;;;;;;5092392;28;1195;-64
2021/05/01 06:21:27;;;;;;;;;;;19.20;58.30;;;;;;5056170;28;1897;-62
2021/05/01 06:23:53;;;;;;;;;;;19.20;58.20;;;;;;5054046;28;1541;-62
2021/05/01 06:26:18;;;;;;;;;;;19.20;58.20;;;;;;5053970;28;1306;-63
2021/05/01 06:28:44;;;;;;;;;;;19.20;58.20;;;;;;5073961;28;1126;-62
2021/05/01 06:31:09;;;;;;;;;;;19.20;58.20;;;;;;5058096;28;1083;-65
2021/05/01 06:33:39;;;;;;;;;;;19.20;58.20;;;;;;5076147;28;1107;-65
2021/05/01 06:36:06;;;;;;;;;;;19.20;58.20;;;;;;5108461;22;1935;-69
2021/05/01 06:38:33;;;;;;;;;;;19.20;58.20;;;;;;5096564;28;1272;-70
2021/05/01 06:41:02;;;;;;;;;;;19.20;58.20;;;;;;5078821;28;1914;-71
2021/05/01 06:43:31;;;;;;;;;;;19.20;58.20;;;;;;5076590;28;974;-71
2021/05/01 06:45:57;;;;;;;;;;;19.20;58.30;;;;;;5086790;28;1486;-71
2021/05/01 06:48:23;;;;;;;;;;;19.20;58.20;;;;;;5058555;28;1021;-70
2021/05/01 06:50:48;;;;;;;;;;;19.20;58.20;;;;;;5075882;28;1071;-71
2021/05/01 06:53:24;;;;;;;;;;;19.20;58.20;;;;;;5042878;28;2032;-70
2021/05/01 06:55:50;;;;;;;;;;;19.20;58.20;;;;;;5062869;28;2121;-68
2021/05/01 06:58:23;;;;;;;;;;;19.20;58.20;;;;;;5068953;28;1514;-68
2021/05/01 07:00:48;;;;;;;;;;;19.20;58.20;;;;;;5066518;28;1969;-68
2021/05/01 07:03:14;;;;;;;;;;;19.20;58.20;;;;;;5072629;28;2246;-67
2021/05/01 07:05:39;;;;;;;;;;;19.20;58.20;;;;;;5075389;28;1479;-68
2021/05/01 07:08:05;;;;;;;;;;;19.20;58.20;;;;;;5068068;28;1355;-68
2021/05/01 07:10:31;;;;;;;;;;;19.20;58.20;;;;;;5055089;28;1871;-68
2021/05/01 07:12:59;;;;;;;;;;;19.20;58.20;;;;;;5073725;28;1312;-68
2021/05/01 07:15:24;;;;;;;;;;;19.20;58.20;;;;;;5075466;28;1757;-68
2021/05/01 07:17:51;;;;;;;;;;;19.20;58.20;;;;;;5075600;28;1584;-68
2021/05/01 07:20:16;;;;;;;;;;;19.20;58.20;;;;;;5069712;28;1947;-67
2021/05/01 07:22:42;;;;;;;;;;;19.20;58.20;;;;;;5057606;28;1623;-67
2021/05/01 07:25:08;;;;;;;;;;;19.20;58.20;;;;;;5075572;28;1586;-68
2021/05/01 07:27:33;;;;;;;;;;;19.20;58.20;;;;;;5075272;28;1359;-67
2021/05/01 07:30:03;;;;;;;;;;;19.20;58.20;;;;;;5075533;28;1352;-67
2021/05/01 07:32:29;;;;;;;;;;;19.20;58.20;;;;;;5075255;28;1556;-67
2021/05/01 07:34:55;;;;;;;;;;;19.20;58.20;;;;;;5075674;28;1423;-67
2021/05/01 07:37:21;;;;;;;;;;;19.20;58.20;;;;;;5074940;28;1447;-68
2021/05/01 07:39:51;;;;;;;;;;;19.20;58.20;;;;;;5056337;28;1957;-67
2021/05/01 07:42:16;;;;;;;;;;;19.20;58.20;;;;;;5075022;28;1787;-67
2021/05/01 07:44:42;;;;;;;;;;;19.20;58.20;;;;;;5057198;28;1599;-67
2021/05/01 07:47:07;;;;;;;;;;;19.20;58.20;;;;;;5056952;28;1479;-67
2021/05/01 07:49:32;;;;;;;;;;;19.20;58.20;;;;;;5073327;28;1600;-67
2021/05/01 07:51:58;;;;;;;;;;;19.20;58.20;;;;;;5073380;28;1633;-67
2021/05/01 07:54:23;;;;;;;;;;;19.20;58.20;;;;;;5064154;28;2182;-67
2021/05/01 07:56:49;;;;;;;;;;;19.20;58.20;;;;;;5073344;28;1523;-68
2021/05/01 07:59:14;;;;;;;;;;;19.20;58.20;;;;;;5074527;28;1506;-68
2021/05/01 08:01:41;;;;;;;;;;;19.20;58.20;;;;;;5074683;28;1992;-67
2021/05/01 08:04:06;;;;;;;;;;;19.20;58.20;;;;;;5074841;28;1381;-67
2021/05/01 08:06:32;;;;;;;;;;;19.20;58.20;;;;;;5067115;28;1560;-67
2021/05/01 08:08:57;;;;;;;;;;;19.20;58.20;;;;;;5051187;28;1567;-67
2021/05/01 08:11:23;;;;;;;;;;;19.20;58.20;;;;;;5074518;28;1601;-68
2021/05/01 08:13:48;;;;;;;;;;;19.20;58.20;;;;;;5056603;28;1643;-68
2021/05/01 08:16:14;;;;;;;;;;;19.20;58.20;;;;;;5064004;28;1358;-68
2021/05/01 08:18:39;;;;;;;;;;;19.20;58.20;;;;;;5074483;28;1362;-67
2021/05/01 08:21:05;;;;;;;;;;;19.20;58.20;;;;;;5074263;28;1959;-67
2021/05/01 08:23:33;;;;;;;;;;;19.20;58.20;;;;;;5063799;28;1494;-67
2021/05/01 08:26:01;;;;;;;;;;;19.20;58.20;;;;;;5071138;28;1317;-68
2021/05/01 08:28:27;;;;;;;;;;;19.20;58.20;;;;;;5056338;28;1620;-67
2021/05/01 08:30:52;;;;;;;;;;;19.20;58.20;;;;;;5074296;28;1667;-67
2021/05/01 08:33:18;;;;;;;;;;;19.20;58.20;;;;;;5071683;28;1420;-67
2021/05/01 08:35:43;;;;;;;;;;;19.20;58.20;;;;;;5056000;28;1447;-68
2021/05/01 08:38:09;;;;;;;;;;;19.20;58.20;;;;;;5074151;28;1722;-67
2021/05/01 08:40:35;;;;;;;;;;;19.20;58.20;;;;;;5073658;28;1910;-67
2021/05/01 08:43:01;;;;;;;;;;;19.20;58.20;;;;;;5055595;28;1705;-67
2021/05/01 08:45:28;;;;;;;;;;;19.20;58.20;;;;;;5073424;28;1546;-67
2021/05/01 08:47:53;;;;;;;;;;;19.20;58.20;;;;;;5070460;28;1395;-66
2021/05/01 08:50:25;;;;;;;;;;;19.20;58.20;;;;;;5056075;28;1624;-66
2021/05/01 08:52:50;;;;;;;;;;;19.20;58.20;;;;;;5073440;28;1608;-67
2021/05/01 08:55:16;;;;;;;;;;;19.20;58.20;;;;;;5073452;28;1683;-67
2021/05/01 08:57:41;;;;;;;;;;;19.20;58.20;;;;;;5073146;28;1735;-66
2021/05/01 09:00:07;;;;;;;;;;;19.20;58.20;;;;;;5073621;28;1918;-67
2021/05/01 09:02:32;;;;;;;;;;;19.20;58.20;;;;;;5071866;28;1382;-68
2021/05/01 09:04:58;;;;;;;;;;;19.20;58.20;;;;;;5066612;28;1920;-67
2021/05/01 09:07:24;;;;;;;;;;;19.20;58.20;;;;;;5048981;28;1416;-67
2021/05/01 09:09:53;;;;;;;;;;;19.20;58.20;;;;;;5063427;28;1152;-68
2021/05/01 09:12:37;;;;;;;;;;;19.20;58.20;;;;;;5069025;28;1250;-67
2021/05/01 09:15:05;;;;;;;;;;;19.20;58.20;;;;;;5063006;28;1282;-67
2021/05/01 09:17:31;;;;;;;;;;;19.20;58.20;;;;;;5045080;28;1275;-67
2021/05/01 09:20:00;;;;;;;;;;;19.20;58.20;;;;;;5063840;28;1906;-68
2021/05/01 09:22:25;;;;;;;;;;;19.20;58.20;;;;;;5062595;28;1493;-68
2021/05/01 09:24:51;;;;;;;;;;;19.20;58.20;;;;;;5045609;28;1424;-68
2021/05/01 09:27:16;;;;;;;;;;;19.20;58.20;;;;;;5045972;28;1497;-68
2021/05/01 09:29:42;;;;;;;;;;;19.20;58.20;;;;;;5046215;28;1335;-68
2021/05/01 09:32:18;;;;;;;;;;;19.20;58.20;;;;;;5048954;28;1216;-67
2021/05/01 09:34:48;;;;;;;;;;;19.20;58.20;;;;;;5067020;28;1278;-68
2021/05/01 09:37:13;;;;;;;;;;;19.20;58.20;;;;;;5065519;28;1423;-67
2021/05/01 09:39:45;;;;;;;;;;;19.20;58.20;;;;;;5046749;28;1947;-67
2021/05/01 09:42:15;;;;;;;;;;;19.20;58.20;;;;;;5063739;28;1334;-67
2021/05/01 09:44:40;;;;;;;;;;;19.20;58.20;;;;;;5065382;28;1306;-68
2021/05/01 09:47:10;;;;;;;;;;;19.20;58.20;;;;;;5045694;28;1400;-68
2021/05/01 09:49:36;;;;;;;;;;;19.20;58.20;;;;;;5067798;28;1393;-68
2021/05/01 09:52:08;;;;;;;;;;;19.20;58.20;;;;;;5062788;28;1207;-68
2021/05/01 09:54:34;;;;;;;;;;;19.20;58.20;;;;;;5046554;28;1676;-68
2021/05/01 09:57:10;;;;;;;;;;;19.20;58.20;;;;;;5049894;28;1998;-67
2021/05/01 09:59:42;;;;;;;;;;;19.20;58.20;;;;;;5062180;28;1930;-67
2021/05/01 10:02:08;;;;;;;;;;;19.20;58.20;;;;;;5053358;28;1766;-68
2021/05/01 10:04:33;;;;;;;;;;;19.20;58.20;;;;;;5071083;28;1402;-67
2021/05/01 10:07:09;;;;;;;;;;;19.20;58.20;;;;;;5071155;28;1675;-67
2021/05/01 10:09:35;;;;;;;;;;;19.20;58.20;;;;;;5053749;28;1399;-67
2021/05/01 10:12:15;;;;;;;;;;;19.20;58.20;;;;;;5071226;28;1368;-67
2021/05/01 10:14:41;;;;;;;;;;;19.20;58.20;;;;;;5053448;28;1593;-67
2021/05/01 10:17:06;;;;;;;;;;;19.20;58.20;;;;;;5070856;28;1296;-67
2021/05/01 10:19:45;;;;;;;;;;;19.20;58.20;;;;;;5051110;28;1969;-67
2021/05/01 10:22:23;;;;;;;;;;;19.20;58.20;;;;;;5052937;28;1469;-67
2021/05/01 10:24:49;;;;;;;;;;;19.20;58.20;;;;;;5071188;28;1689;-67
2021/05/01 10:27:14;;;;;;;;;;;19.20;58.20;;;;;;5052818;28;1661;-67
2021/05/01 10:29:42;;;;;;;;;;;19.20;58.20;;;;;;5071185;28;1798;-67
2021/05/01 10:32:31;;;;;;;;;;;19.20;58.20;;;;;;5053841;28;1595;-67
2021/05/01 10:34:57;;;;;;;;;;;19.20;58.20;;;;;;5055255;28;1555;-67
2021/05/01 10:37:23;;;;;;;;;;;19.20;58.20;;;;;;5070832;28;1614;-67
2021/05/01 10:39:48;;;;;;;;;;;19.20;58.20;;;;;;5053282;28;1906;-67
2021/05/01 10:42:14;;;;;;;;;;;19.20;58.20;;;;;;5053129;28;1384;-67
2021/05/01 10:44:39;;;;;;;;;;;19.20;58.20;;;;;;5053171;28;1446;-67
2021/05/01 10:47:13;;;;;;;;;;;19.20;58.20;;;;;;5052821;28;1680;-67
2021/05/01 10:49:39;;;;;;;;;;;19.20;58.20;;;;;;5070878;28;1361;-67
2021/05/01 10:52:17;;;;;;;;;;;19.20;58.20;;;;;;5065757;28;1196;-68
2021/05/01 10:54:55;;;;;;;;;;;19.20;58.20;;;;;;5052947;28;1603;-67
2021/05/01 10:57:21;;;;;;;;;;;19.20;58.20;;;;;;5069609;28;1300;-67
2021/05/01 11:00:16;;;;;;;;;;;19.20;58.20;;;;;;5043360;28;1975;-67
2021/05/01 11:02:42;;;;;;;;;;;19.20;58.20;;;;;;5054853;28;1447;-68
2021/05/01 11:05:11;;;;;;;;;;;19.20;58.20;;;;;;5058954;28;1246;-68
2021/05/01 11:07:51;;;;;;;;;;;19.30;58.20;;;;;;5061664;28;1369;-68
2021/05/01 11:10:16;;;;;;;;;;;19.20;58.20;;;;;;5061287;28;1148;-67
2021/05/01 11:12:47;;;;;;;;;;;19.20;58.20;;;;;;5043729;28;1167;-68
2021/05/01 11:15:13;;;;;;;;;;;19.20;58.20;;;;;;5062527;28;1247;-68
2021/05/01 11:17:52;;;;;;;;;;;19.20;58.20;;;;;;5066735;28;1277;-68
2021/05/01 11:20:18;;;;;;;;;;;19.20;58.20;;;;;;5067419;28;1973;-68
2021/05/01 11:22:44;;;;;;;;;;;19.20;58.20;;;;;;5064837;28;1195;-69
2021/05/01 11:25:10;;;;;;;;;;;19.20;58.20;;;;;;5065538;28;1194;-69
2021/05/01 11:27:36;;;;;;;;;;;19.20;58.10;;;;;;5046774;28;1584;-68
2021/05/01 11:30:02;;;;;;;;;;;19.20;58.20;;;;;;5056694;28;1666;-68
2021/05/01 11:32:27;;;;;;;;;;;19.20;58.20;;;;;;5039951;28;1609;-69
2021/05/01 11:35:03;;;;;;;;;;;19.20;58.10;;;;;;5074333;28;1666;-68
2021/05/01 11:37:28;;;;;;;;;;;19.20;58.10;;;;;;5073095;28;1423;-68
2021/05/01 11:39:54;;;;;;;;;;;19.20;58.10;;;;;;5055793;28;1981;-69
2021/05/01 11:42:21;;;;;;;;;;;19.20;58.10;;;;;;5056308;28;1677;-68
2021/05/01 11:44:47;;;;;;;;;;;19.20;58.10;;;;;;5039495;28;1639;-68
2021/05/01 11:47:12;;;;;;;;;;;19.20;58.10;;;;;;5055935;28;1362;-68
2021/05/01 11:49:38;;;;;;;;;;;19.20;58.10;;;;;;5052675;28;1400;-67
2021/05/01 11:52:09;;;;;;;;;;;19.20;58.10;;;;;;5048131;28;1361;-68
2021/05/01 11:54:44;;;;;;;;;;;19.20;58.10;;;;;;5064584;28;1028;-67
2021/05/01 11:57:11;;;;;;;;;;;19.20;58.10;;;;;;5063809;28;1340;-68
2021/05/01 11:59:43;;;;;;;;;;;19.20;58.20;;;;;;5030738;28;1953;-71
2021/05/01 12:02:08;;;;;;;;;;;19.20;58.20;;;;;;5065350;28;1212;-69
2021/05/01 12:04:56;;;;;;;;;;;19.20;58.20;;;;;;5048037;28;1445;-67
2021/05/01 12:07:27;;;;;;;;;;;19.20;58.10;;;;;;5072901;28;1369;-67
2021/05/01 12:09:52;;;;;;;;;;;19.20;58.20;;;;;;5055158;28;2497;-68
2021/05/01 12:12:18;;;;;;;;;;;19.20;58.20;;;;;;5061279;28;1027;-67
2021/05/01 12:14:43;;;;;;;;;;;19.30;58.20;;;;;;5066993;28;1086;-69
2021/05/01 12:17:10;;;;;;;;;;;19.20;58.20;;;;;;5072730;28;1275;-69
2021/05/01 12:19:39;;;;;;;;;;;19.30;58.20;;;;;;5052693;28;1902;-70
2021/05/01 12:22:21;;;;;;;;;;;19.20;58.10;;;;;;5053833;28;1115;-70
2021/05/01 12:24:46;;;;;;;;;;;19.20;58.10;;;;;;5055465;28;1191;-70
2021/05/01 12:27:12;;;;;;;;;;;19.20;58.10;;;;;;5054482;28;1209;-70
2021/05/01 12:29:39;;;;;;;;;;;19.20;58.20;;;;;;5054902;28;1167;-69
2021/05/01 12:32:06;;;;;;;;;;;19.20;58.20;;;;;;5055357;28;1096;-69
2021/05/01 12:34:46;;;;;;;;;;;19.20;58.10;;;;;;5073165;28;1048;-70
2021/05/01 12:37:12;;;;;;;;;;;19.20;58.70;;;;;;5093806;22;2139;-65
2021/05/01 12:39:38;;;;;;;;;;;19.20;58.70;;;;;;5092537;28;1990;-64
2021/05/01 12:42:17;;;;;;;;;;;19.20;58.20;;;;;;5102679;28;1545;-66
2021/05/01 12:44:45;;;;;;;;;;;19.20;58.10;;;;;;5097245;28;1367;-65
2021/05/01 12:47:10;;;;;;;;;;;19.20;58.10;;;;;;5112045;28;1378;-65
2021/05/01 12:49:36;;;;;;;;;;;19.20;58.10;;;;;;5094573;28;1442;-65
2021/05/01 12:52:06;;;;;;;;;;;19.30;58.10;;;;;;5107894;28;1565;-65
2021/05/01 12:54:35;;;;;;;;;;;19.20;58.10;;;;;;5074492;28;1427;-65
2021/05/01 12:57:02;;;;;;;;;;;19.20;58.10;;;;;;5091536;28;1353;-65
2021/05/01 12:59:28;;;;;;;;;;;19.20;58.20;;;;;;5092174;28;1898;-65
2021/05/01 13:01:53;;;;;;;;;;;19.20;58.20;;;;;;5091050;28;1365;-65
2021/05/01 13:04:25;;;;;;;;;;;19.20;58.20;;;;;;5092588;28;1833;-65
2021/05/01 13:06:52;;;;;;;;;;;19.20;58.20;;;;;;5091520;28;1357;-65
2021/05/01 13:09:18;;;;;;;;;;;19.20;58.20;;;;;;5092482;28;1431;-65
2021/05/01 13:11:44;;;;;;;;;;;19.20;58.20;;;;;;5091046;28;1615;-65
2021/05/01 13:14:27;;;;;;;;;;;19.20;58.10;;;;;;5084003;28;1656;-64
2021/05/01 13:16:59;;;;;;;;;;;19.20;58.20;;;;;;5069001;28;1309;-66
2021/05/01 13:19:25;;;;;;;;;;;19.20;58.10;;;;;;5090920;28;1444;-65
2021/05/01 13:21:59;;;;;;;;;;;19.20;58.10;;;;;;5088252;28;1964;-65
2021/05/01 13:24:26;;;;;;;;;;;19.20;58.10;;;;;;5092147;28;1661;-65
2021/05/01 13:26:51;;;;;;;;;;;19.20;58.10;;;;;;5091066;28;1363;-65
2021/05/01 13:29:16;;;;;;;;;;;19.20;58.10;;;;;;5092020;28;1371;-65
2021/05/01 13:31:42;;;;;;;;;;;19.20;58.20;;;;;;5091905;28;1352;-65
2021/05/01 13:34:11;;;;;;;;;;;19.20;58.10;;;;;;5090468;28;1405;-64
2021/05/01 13:36:36;;;;;;;;;;;19.20;58.10;;;;;;5089863;28;1656;-65
2021/05/01 13:39:02;;;;;;;;;;;19.20;58.10;;;;;;5072940;28;877;-64
2021/05/01 13:41:27;;;;;;;;;;;19.20;58.20;;;;;;5089484;28;1914;-66
2021/05/01 13:43:56;;;;;;;;;;;19.20;58.20;;;;;;5099266;28;1561;-65
2021/05/01 13:46:22;;;;;;;;;;;19.20;58.10;;;;;;5091094;28;1460;-65
2021/05/01 13:48:48;;;;;;;;;;;19.20;58.10;;;;;;5091511;28;1634;-65
2021/05/01 13:51:14;;;;;;;;;;;19.20;58.10;;;;;;5076228;28;1982;-66
2021/05/01 13:53:40;;;;;;;;;;;19.20;58.10;;;;;;5069895;28;2067;-65
2021/05/01 13:56:05;;;;;;;;;;;19.20;58.10;;;;;;5078144;28;1937;-66
2021/05/01 13:58:32;;;;;;;;;;;19.20;58.10;;;;;;5091542;28;1591;-65
2021/05/01 14:00:59;;;;;;;;;;;19.20;58.10;;;;;;5082439;28;1964;-65
2021/05/01 14:03:30;;;;;;;;;;;19.20;58.20;;;;;;5091787;28;1376;-66
2021/05/01 14:05:56;;;;;;;;;;;19.20;58.10;;;;;;5089485;28;1649;-65
2021/05/01 14:08:21;;;;;;;;;;;19.20;58.10;;;;;;5070987;28;2190;-64
2021/05/01 14:10:48;;;;;;;;;;;19.20;58.10;;;;;;5091337;28;1666;-64
2021/05/01 14:13:14;;;;;;;;;;;19.20;58.20;;;;;;5079973;28;1557;-65
2021/05/01 14:15:41;;;;;;;;;;;19.20;58.20;;;;;;5071998;28;1750;-64
2021/05/01 14:18:08;;;;;;;;;;;19.20;58.10;;;;;;5065786;28;1361;-66
2021/05/01 14:20:33;;;;;;;;;;;19.20;58.20;;;;;;5070864;28;1965;-65
2021/05/01 14:22:59;;;;;;;;;;;19.20;58.20;;;;;;5059294;28;1325;-66
2021/05/01 14:25:26;;;;;;;;;;;19.20;58.20;;;;;;5084164;28;1601;-65
2021/05/01 14:27:51;;;;;;;;;;;19.20;58.20;;;;;;5086015;28;1275;-65
2021/05/01 14:30:26;;;;;;;;;;;19.20;58.20;;;;;;5088155;28;1535;-65
2021/05/01 14:32:51;;;;;;;;;;;19.20;58.20;;;;;;5087338;28;1335;-64